createdAt,value
2018-10-01T00:01:10.420Z,19.10
2018-10-01T00:03:41.111Z,19.10
2018-10-01T00:06:12.401Z,19.20
2018-10-01T00:08:42.955Z,19.20
2018-10-01T00:11:13.649Z,19.10
2018-10-01T00:13:44.506Z,19.10
2018-10-01T00:16:15.377Z,19.10
2018-10-01T00:18:45.873Z,19.10
2018-10-01T00:21:21.417Z,19.10
2018-10-01T00:23:52.207Z,19.20
2018-10-01T00:26:22.905Z,19.20
2018-10-01T00:28:53.695Z,19.20
2018-10-01T00:31:24.494Z,19.30
2018-10-01T00:33:55.045Z,19.20
2018-10-01T00:36:25.704Z,19.20
2018-10-01T00:38:56.354Z,19.20
2018-10-01T00:41:27.069Z,19.20
2018-10-01T00:43:57.636Z,19.20
2018-10-01T00:46:28.321Z,19.20
2018-10-01T00:48:58.882Z,19.20
2018-10-01T00:51:29.534Z,19.20
2018-10-01T00:54:00.263Z,19.30
2018-10-01T00:56:31.020Z,19.30
2018-10-01T00:59:01.703Z,19.30
2018-10-01T01:01:32.502Z,19.20
2018-10-01T01:04:03.267Z,19.30
2018-10-01T01:06:33.971Z,19.30
2018-10-01T01:09:05.326Z,19.30
2018-10-01T01:11:36.067Z,19.30
2018-10-01T01:14:06.648Z,19.40
2018-10-01T01:16:37.324Z,19.30
2018-10-01T01:19:07.883Z,19.30
2018-10-01T01:21:38.638Z,19.40
2018-10-01T01:24:09.288Z,19.40
2018-10-01T01:26:40.036Z,19.50
2018-10-01T01:29:10.775Z,19.40
2018-10-01T01:31:41.476Z,19.40
2018-10-01T01:34:12.419Z,19.40
2018-10-01T01:36:42.987Z,19.40
2018-10-01T01:39:13.675Z,19.40
2018-10-01T01:41:44.291Z,19.30
2018-10-01T01:44:14.960Z,19.30
2018-10-01T01:46:45.547Z,19.30
2018-10-01T01:49:16.248Z,19.30
2018-10-01T01:51:46.964Z,19.30
2018-10-01T01:54:17.533Z,19.30
2018-10-01T01:56:48.071Z,19.30
2018-10-01T01:59:18.774Z,19.30
2018-10-01T02:01:49.436Z,19.20
2018-10-01T02:04:20.336Z,19.20
2018-10-01T02:06:51.050Z,19.20
2018-10-01T02:09:21.778Z,19.10
2018-10-01T02:11:52.396Z,19.10
2018-10-01T02:14:23.278Z,19.10
2018-10-01T02:16:54.194Z,19.20
2018-10-01T02:19:24.851Z,19.20
2018-10-01T02:21:55.717Z,19.20
2018-10-01T02:24:26.398Z,19.30
2018-10-01T02:26:57.010Z,19.30
2018-10-01T02:29:28.050Z,19.30
2018-10-01T02:31:59.092Z,19.40
2018-10-01T02:34:29.794Z,19.30
2018-10-01T02:37:00.366Z,19.30
2018-10-01T02:39:31.012Z,19.30
2018-10-01T02:42:01.769Z,19.20
2018-10-01T02:44:32.297Z,19.20
2018-10-01T02:47:03.020Z,19.20
2018-10-01T02:49:33.746Z,19.20
2018-10-01T02:52:09.393Z,19.20
2018-10-01T02:54:40.145Z,19.20
2018-10-01T02:57:10.863Z,19.20
2018-10-01T02:59:41.517Z,19.10
2018-10-01T03:02:12.234Z,19.20
2018-10-01T03:04:43.032Z,19.10
2018-10-01T03:07:13.889Z,19.10
2018-10-01T03:09:44.807Z,19.10
2018-10-01T03:12:15.562Z,19.10
2018-10-01T03:14:46.449Z,19.10
2018-10-01T03:17:17.479Z,19.10
2018-10-01T03:19:48.220Z,19.10
2018-10-01T03:22:18.878Z,19.10
2018-10-01T03:24:49.552Z,19.10
2018-10-01T03:27:20.181Z,19.10
2018-10-01T03:29:50.900Z,19.10
2018-10-01T03:32:21.693Z,19.00
2018-10-01T03:34:52.630Z,19.10
2018-10-01T03:37:23.477Z,19.00
2018-10-01T03:39:54.444Z,19.00
2018-10-01T03:42:25.004Z,19.10
2018-10-01T03:44:55.967Z,19.20
2018-10-01T03:47:26.590Z,19.10
2018-10-01T03:49:57.284Z,19.20
2018-10-01T03:52:27.927Z,19.10
2018-10-01T03:54:58.608Z,19.00
2018-10-01T03:57:29.567Z,19.00
2018-10-01T04:00:00.485Z,19.00
2018-10-01T04:02:31.264Z,19.00
2018-10-01T04:05:01.803Z,19.00
2018-10-01T04:07:32.380Z,18.90
2018-10-01T04:10:03.044Z,19.00
2018-10-01T04:12:33.739Z,19.00
2018-10-01T04:15:04.334Z,19.00
2018-10-01T04:17:35.033Z,19.00
2018-10-01T04:20:06.347Z,19.10
2018-10-01T04:22:38.528Z,19.10
2018-10-01T04:25:10.863Z,19.10
2018-10-01T04:27:41.610Z,19.20
2018-10-01T04:30:13.389Z,19.20
2018-10-01T04:32:44.584Z,19.20
2018-10-01T04:35:15.372Z,19.20
2018-10-01T04:37:46.060Z,19.20
2018-10-01T04:40:17.066Z,19.20
2018-10-01T04:42:47.779Z,19.20
2018-10-01T04:45:18.449Z,19.20
2018-10-01T04:47:49.198Z,19.20
2018-10-01T04:50:20.280Z,19.10
2018-10-01T04:52:50.972Z,19.20
2018-10-01T04:55:21.915Z,19.20
2018-10-01T04:57:53.344Z,19.20
2018-10-01T05:00:23.893Z,19.20
2018-10-01T05:02:54.567Z,19.20
2018-10-01T05:05:25.686Z,19.20
2018-10-01T05:07:56.639Z,19.20
2018-10-01T05:10:27.328Z,19.20
2018-10-01T05:18:59.094Z,19.40
2018-10-01T05:21:30.006Z,19.50
2018-10-01T05:24:00.732Z,19.60
2018-10-01T05:26:31.726Z,19.60
2018-10-01T05:29:02.726Z,19.60
2018-10-01T05:31:33.706Z,19.60
2018-10-01T05:34:04.566Z,19.60
2018-10-01T05:36:35.486Z,19.70
2018-10-01T05:39:09.202Z,19.70
2018-10-01T05:41:39.833Z,19.70
2018-10-01T05:44:10.703Z,19.90
2018-10-01T05:46:41.559Z,19.90
2018-10-01T05:49:12.408Z,20.00
2018-10-01T05:51:43.277Z,19.90
2018-10-01T05:54:14.426Z,20.00
2018-10-01T05:56:45.088Z,20.00
2018-10-01T05:59:15.957Z,20.00
2018-10-01T06:01:46.812Z,20.00
2018-10-01T06:04:17.679Z,20.00
2018-10-01T06:06:48.280Z,20.00
2018-10-01T06:09:18.952Z,20.00
2018-10-01T06:11:49.801Z,20.00
2018-10-01T06:14:20.531Z,20.00
2018-10-01T06:16:51.331Z,20.10
2018-10-01T06:19:22.017Z,20.10
2018-10-01T06:21:52.628Z,20.10
2018-10-01T06:24:23.243Z,20.10
2018-10-01T06:26:53.850Z,20.20
2018-10-01T06:29:24.592Z,20.20
2018-10-01T06:31:55.164Z,20.20
2018-10-01T06:34:26.028Z,20.30
2018-10-01T06:36:56.659Z,20.30
2018-10-01T06:39:27.508Z,20.30
2018-10-01T06:41:58.420Z,20.30
2018-10-01T06:44:29.550Z,20.30
2018-10-01T06:47:00.388Z,20.30
2018-10-01T06:49:30.978Z,20.30
2018-10-01T06:52:01.766Z,20.30
2018-10-01T06:54:36.283Z,20.20
2018-10-01T06:57:09.253Z,20.10
2018-10-01T06:59:56.303Z,20.20
2018-10-01T07:02:30.164Z,20.20
2018-10-01T07:05:02.059Z,20.20
2018-10-01T07:07:33.007Z,20.20
2018-10-01T07:10:04.157Z,20.30
2018-10-01T07:12:35.452Z,20.40
2018-10-01T07:15:07.113Z,20.40
2018-10-01T07:17:39.759Z,20.50
2018-10-01T07:20:34.142Z,20.60
2018-10-01T07:23:04.983Z,20.60
2018-10-01T07:25:35.742Z,20.60
2018-10-01T07:28:07.224Z,20.70
2018-10-01T07:30:38.258Z,20.80
2018-10-01T07:33:16.961Z,20.80
2018-10-01T07:35:51.579Z,20.90
2018-10-01T07:38:23.148Z,20.90
2018-10-01T07:40:55.022Z,20.80
2018-10-01T07:43:25.579Z,20.90
2018-10-01T07:45:56.472Z,20.90
2018-10-01T07:48:28.139Z,20.90
2018-10-01T07:50:59.276Z,20.90
2018-10-01T07:53:30.086Z,20.90
2018-10-01T07:56:00.854Z,20.90
2018-10-01T07:58:31.489Z,20.90
2018-10-01T08:01:02.376Z,21.00
2018-10-01T08:03:33.383Z,21.20
2018-10-01T08:06:04.096Z,21.40
2018-10-01T08:08:35.365Z,21.40
2018-10-01T08:11:06.029Z,21.40
2018-10-01T08:13:36.642Z,21.40
2018-10-01T08:16:07.597Z,21.50
2018-10-01T08:18:38.664Z,21.60
2018-10-01T08:21:09.629Z,21.70
2018-10-01T08:23:40.388Z,21.90
2018-10-01T08:26:11.340Z,22.10
2018-10-01T08:28:41.984Z,22.80
2018-10-01T08:31:13.142Z,23.30
2018-10-01T08:33:43.817Z,23.60
2018-10-01T08:36:14.690Z,23.80
2018-10-01T08:38:47.148Z,23.60
2018-10-01T08:41:17.741Z,23.50
2018-10-01T08:43:48.372Z,23.60
2018-10-01T08:46:19.047Z,23.50
2018-10-01T08:48:57.572Z,23.50
2018-10-01T08:51:33.821Z,23.50
2018-10-01T08:54:39.499Z,23.50
2018-10-01T08:57:10.140Z,23.50
2018-10-01T08:59:40.701Z,23.60
2018-10-01T09:02:11.388Z,23.60
2018-10-01T09:04:42.020Z,23.80
2018-10-01T09:07:12.799Z,24.10
2018-10-01T09:09:43.945Z,24.40
2018-10-01T09:12:14.612Z,24.60
2018-10-01T09:14:45.754Z,24.80
2018-10-01T09:17:16.426Z,25.10
2018-10-01T09:19:47.410Z,25.30
2018-10-01T09:22:18.394Z,25.40
2018-10-01T09:24:49.253Z,25.20
2018-10-01T09:27:19.861Z,25.20
2018-10-01T09:29:50.869Z,25.10
2018-10-01T09:32:21.508Z,25.00
2018-10-01T09:34:52.239Z,24.90
2018-10-01T09:37:22.854Z,24.80
2018-10-01T09:39:56.671Z,24.60
2018-10-01T09:42:27.421Z,24.60
2018-10-01T09:44:58.259Z,24.60
2018-10-01T09:47:29.435Z,24.50
2018-10-01T09:50:00.965Z,24.40
2018-10-01T09:52:31.910Z,24.30
2018-10-01T09:55:02.907Z,24.30
2018-10-01T09:57:33.580Z,24.30
2018-10-01T10:00:04.320Z,24.40
2018-10-01T10:02:35.268Z,24.30
2018-10-01T10:05:06.246Z,24.20
2018-10-01T10:07:38.191Z,24.10
2018-10-01T10:10:09.343Z,24.10
2018-10-01T10:12:40.069Z,24.10
2018-10-01T10:15:10.648Z,24.10
2018-10-01T10:17:42.136Z,24.10
2018-10-01T10:20:12.985Z,24.10
2018-10-01T10:22:44.177Z,24.20
2018-10-01T10:25:16.327Z,24.20
2018-10-01T10:27:47.263Z,24.10
2018-10-01T10:30:18.133Z,24.10
2018-10-01T10:32:48.905Z,24.00
2018-10-01T10:35:19.616Z,24.00
2018-10-01T10:37:50.932Z,24.00
2018-10-01T10:40:21.904Z,24.00
2018-10-01T10:42:52.878Z,24.10
2018-10-01T10:45:23.483Z,24.70
2018-10-01T10:47:54.336Z,25.50
2018-10-01T10:50:25.131Z,26.00
2018-10-01T10:52:55.773Z,26.00
2018-10-01T10:55:26.415Z,25.90
2018-10-01T10:57:57.308Z,25.60
2018-10-01T11:00:28.310Z,25.50
2018-10-01T11:02:59.017Z,25.40
2018-10-01T11:05:29.735Z,25.90
2018-10-01T11:08:00.383Z,26.20
2018-10-01T11:10:31.140Z,26.10
2018-10-01T11:13:02.149Z,25.80
2018-10-01T11:15:33.508Z,25.50
2018-10-01T11:18:04.361Z,25.30
2018-10-01T11:20:35.146Z,24.90
2018-10-01T11:23:05.921Z,24.70
2018-10-01T11:25:36.686Z,24.30
2018-10-01T11:28:07.584Z,23.80
2018-10-01T11:30:38.211Z,23.20
2018-10-01T11:33:08.996Z,23.00
2018-10-01T11:35:39.618Z,23.00
2018-10-01T11:38:10.479Z,22.80
2018-10-01T11:40:41.314Z,22.60
2018-10-01T11:43:11.957Z,22.60
2018-10-01T11:45:42.707Z,22.60
2018-10-01T11:48:13.646Z,22.40
2018-10-01T11:50:45.957Z,22.30
2018-10-01T11:53:18.528Z,22.30
2018-10-01T11:55:51.503Z,22.20
2018-10-01T11:58:22.395Z,22.10
2018-10-01T12:00:54.704Z,22.10
2018-10-01T12:03:25.494Z,21.90
2018-10-01T12:05:56.342Z,21.70
2018-10-01T12:08:27.079Z,21.30
2018-10-01T12:10:57.692Z,21.00
2018-10-01T12:13:28.470Z,21.00
2018-10-01T12:15:59.448Z,20.90
2018-10-01T12:18:30.006Z,20.80
2018-10-01T12:21:00.875Z,20.70
2018-10-01T12:23:31.834Z,20.70
2018-10-01T12:26:02.870Z,20.70
2018-10-01T12:28:33.595Z,20.80
2018-10-01T12:31:04.308Z,20.80
2018-10-01T12:33:35.122Z,20.90
2018-10-01T12:36:12.588Z,21.10
2018-10-01T12:38:43.355Z,21.20
2018-10-01T12:41:14.059Z,21.20
2018-10-01T12:43:44.840Z,21.10
2018-10-01T12:46:15.556Z,21.10
2018-10-01T12:48:46.214Z,21.30
2018-10-01T12:51:17.077Z,21.50
2018-10-01T12:53:47.820Z,21.80
2018-10-01T12:56:18.440Z,21.90
2018-10-01T12:58:49.181Z,21.90
2018-10-01T13:01:20.021Z,22.10
2018-10-01T13:03:50.828Z,22.10
2018-10-01T13:06:21.724Z,22.10
2018-10-01T13:08:52.671Z,22.10
2018-10-01T13:11:23.486Z,22.20
2018-10-01T13:13:54.395Z,22.20
2018-10-01T13:16:25.099Z,22.10
2018-10-01T13:18:57.653Z,22.20
2018-10-01T13:21:28.406Z,22.10
2018-10-01T13:23:59.233Z,22.20
2018-10-01T13:26:30.356Z,22.50
2018-10-01T13:29:01.308Z,22.50
2018-10-01T13:31:32.145Z,22.50
2018-10-01T13:34:03.149Z,22.80
2018-10-01T13:36:43.566Z,23.10
2018-10-01T13:39:18.281Z,23.20
2018-10-01T13:41:53.069Z,23.10
2018-10-01T13:44:23.839Z,23.00
2018-10-01T13:46:54.867Z,23.30
2018-10-01T13:49:26.097Z,23.20
2018-10-01T13:51:58.959Z,23.30
2018-10-01T13:54:31.580Z,23.60
2018-10-01T13:57:02.801Z,24.00
2018-10-01T13:59:42.850Z,24.40
2018-10-01T14:02:15.315Z,24.80
2018-10-01T14:04:46.090Z,24.90
2018-10-01T14:07:17.024Z,25.00
2018-10-01T14:09:47.689Z,25.00
2018-10-01T14:12:18.554Z,25.10
2018-10-01T14:14:49.342Z,25.20
2018-10-01T14:17:19.947Z,25.20
2018-10-01T14:19:50.877Z,25.20
2018-10-01T14:22:21.827Z,25.10
2018-10-01T14:24:52.663Z,24.90
2018-10-01T14:27:23.451Z,24.80
2018-10-01T14:29:54.093Z,24.60
2018-10-01T14:32:28.172Z,24.50
2018-10-01T14:34:59.818Z,24.30
2018-10-01T14:37:31.735Z,24.30
2018-10-01T14:40:02.398Z,24.20
2018-10-01T14:42:33.199Z,24.10
2018-10-01T14:45:03.775Z,23.90
2018-10-01T14:47:34.508Z,23.70
2018-10-01T14:50:05.711Z,23.60
2018-10-01T14:52:36.830Z,23.50
2018-10-01T14:55:08.387Z,23.30
2018-10-01T14:57:39.335Z,23.20
2018-10-01T15:00:10.247Z,22.90
2018-10-01T15:02:40.799Z,22.80
2018-10-01T15:05:11.404Z,22.70
2018-10-01T15:07:42.193Z,22.60
2018-10-01T15:10:12.852Z,22.60
2018-10-01T15:12:43.684Z,22.50
2018-10-01T15:15:14.305Z,22.50
2018-10-01T15:17:45.061Z,22.60
2018-10-01T15:20:15.987Z,22.50
2018-10-01T15:22:46.779Z,22.50
2018-10-01T15:25:17.637Z,22.50
2018-10-01T15:27:48.364Z,22.50
2018-10-01T15:30:19.061Z,22.40
2018-10-01T15:32:49.675Z,22.40
2018-10-01T15:35:20.487Z,22.50
2018-10-01T15:37:51.380Z,22.40
2018-10-01T15:40:22.286Z,22.40
2018-10-01T15:42:53.626Z,22.40
2018-10-01T15:45:24.760Z,22.30
2018-10-01T15:47:55.678Z,22.20
2018-10-01T15:50:26.425Z,22.10
2018-10-01T15:52:57.545Z,22.10
2018-10-01T15:55:28.527Z,22.10
2018-10-01T15:57:59.889Z,22.00
2018-10-01T16:00:30.613Z,22.00
2018-10-01T16:03:01.467Z,21.90
2018-10-01T16:05:33.724Z,21.90
2018-10-01T16:08:12.756Z,21.90
2018-10-01T16:10:45.431Z,21.90
2018-10-01T16:13:17.292Z,21.80
2018-10-01T16:15:50.637Z,21.80
2018-10-01T16:18:24.625Z,21.70
2018-10-01T16:20:56.165Z,21.60
2018-10-01T16:23:30.169Z,21.50
2018-10-01T16:26:02.124Z,21.50
2018-10-01T16:28:32.923Z,21.30
2018-10-01T16:31:05.650Z,21.30
2018-10-01T16:33:38.427Z,21.30
2018-10-01T16:36:11.469Z,21.30
2018-10-01T16:38:42.554Z,21.30
2018-10-01T16:41:15.505Z,21.20
2018-10-01T16:43:46.314Z,21.20
2018-10-01T16:46:17.366Z,21.20
2018-10-01T16:48:48.410Z,21.20
2018-10-01T16:51:20.371Z,21.10
2018-10-01T16:53:51.367Z,21.10
2018-10-01T16:56:22.277Z,21.10
2018-10-01T16:58:53.409Z,21.20
2018-10-01T17:01:24.352Z,21.10
2018-10-01T17:03:55.289Z,21.00
2018-10-01T17:06:31.523Z,21.00
2018-10-01T17:09:02.753Z,21.00
2018-10-01T17:11:33.625Z,21.10
2018-10-01T17:14:04.681Z,21.10
2018-10-01T17:16:35.390Z,21.10
2018-10-01T17:19:06.120Z,21.00
2018-10-01T17:21:36.861Z,20.80
2018-10-01T17:24:08.185Z,20.80
2018-10-01T17:26:39.091Z,20.60
2018-10-01T17:29:11.725Z,20.50
2018-10-01T17:31:43.304Z,20.40
2018-10-01T17:34:14.092Z,20.40
2018-10-01T17:36:44.964Z,20.40
2018-10-01T17:39:15.805Z,20.40
2018-10-01T17:41:46.708Z,20.40
2018-10-01T17:44:18.613Z,20.20
2018-10-01T17:46:51.420Z,20.20
2018-10-01T17:49:22.596Z,20.20
2018-10-01T17:51:53.500Z,20.20
2018-10-01T17:54:24.617Z,20.00
2018-10-01T17:56:55.438Z,19.90
2018-10-01T17:59:26.237Z,19.80
2018-10-01T18:01:57.256Z,19.70
2018-10-01T18:04:28.203Z,19.60
2018-10-01T18:06:59.217Z,19.50
2018-10-01T18:09:30.113Z,19.50
2018-10-01T18:12:00.998Z,19.40
2018-10-01T18:14:38.928Z,19.40
2018-10-01T18:17:12.438Z,19.40
2018-10-01T18:19:43.633Z,19.40
2018-10-01T18:22:14.628Z,19.40
2018-10-01T18:24:45.863Z,19.20
2018-10-01T18:27:17.054Z,19.20
2018-10-01T18:29:48.141Z,19.10
2018-10-01T18:32:19.915Z,19.20
2018-10-01T18:34:51.134Z,19.10
2018-10-01T18:37:23.022Z,19.10
2018-10-01T18:39:53.843Z,19.00
2018-10-01T18:42:25.671Z,19.00
2018-10-01T18:44:56.275Z,18.90
2018-10-01T18:47:27.019Z,18.80
2018-10-01T18:49:58.135Z,18.80
2018-10-01T18:52:32.190Z,18.70
2018-10-01T18:55:03.065Z,18.80
2018-10-01T18:57:35.859Z,18.70
2018-10-01T19:00:07.675Z,18.70
2018-10-01T19:02:40.116Z,18.70
2018-10-01T19:05:11.728Z,18.60
2018-10-01T19:07:42.414Z,18.60
2018-10-01T19:10:13.163Z,18.60
2018-10-01T19:12:44.068Z,18.60
2018-10-01T19:15:14.998Z,18.60
2018-10-01T19:17:45.664Z,18.50
2018-10-01T19:20:16.491Z,18.40
2018-10-01T19:22:47.543Z,18.40
2018-10-01T19:25:19.452Z,18.30
2018-10-01T19:27:50.162Z,18.20
2018-10-01T19:30:20.914Z,18.20
2018-10-01T19:32:51.565Z,18.20
2018-10-01T19:35:22.253Z,18.10
2018-10-01T19:37:52.876Z,18.20
2018-10-01T19:40:23.456Z,18.20
2018-10-01T19:42:54.167Z,18.10
2018-10-01T19:45:24.927Z,18.10
2018-10-01T19:47:55.800Z,18.10
2018-10-01T19:50:26.788Z,18.10
2018-10-01T19:52:57.532Z,18.10
2018-10-01T19:55:28.316Z,18.10
2018-10-01T19:57:58.987Z,18.10
2018-10-01T20:00:29.805Z,18.20
2018-10-01T20:03:00.706Z,18.20
2018-10-01T20:05:31.603Z,18.20
2018-10-01T20:08:02.301Z,18.20
2018-10-01T20:10:33.095Z,18.30
2018-10-01T20:13:03.872Z,18.40
2018-10-01T20:15:34.854Z,18.40
2018-10-01T20:18:05.485Z,18.40
2018-10-01T20:20:36.333Z,18.40
2018-10-01T20:23:07.048Z,18.50
2018-10-01T20:25:38.313Z,18.50
2018-10-01T20:28:09.103Z,18.50
2018-10-01T20:30:39.773Z,18.50
2018-10-01T20:33:10.347Z,18.50
2018-10-01T20:35:41.562Z,18.50
2018-10-01T20:38:12.442Z,18.60
2018-10-01T20:40:43.147Z,18.60
2018-10-01T20:43:14.096Z,18.60
2018-10-01T20:45:44.700Z,18.60
2018-10-01T20:48:15.660Z,18.60
2018-10-01T20:50:46.377Z,18.60
2018-10-01T20:53:17.189Z,18.50
2018-10-01T20:55:47.949Z,18.50
2018-10-01T20:58:18.655Z,18.50
2018-10-01T21:00:49.453Z,18.60
2018-10-01T21:03:20.292Z,18.50
2018-10-01T21:05:51.163Z,18.50
2018-10-01T21:08:22.028Z,18.50
2018-10-01T21:10:52.871Z,18.40
2018-10-01T21:13:23.786Z,18.40
2018-10-01T21:15:54.754Z,18.50
2018-10-01T21:18:25.436Z,18.50
2018-10-01T21:20:56.143Z,18.50
2018-10-01T21:23:26.859Z,18.50
2018-10-01T21:25:57.750Z,18.50
2018-10-01T21:28:28.445Z,18.60
2018-10-01T21:30:59.175Z,18.60
2018-10-01T21:33:30.045Z,18.60
2018-10-01T21:36:01.057Z,18.60
2018-10-01T21:38:31.928Z,18.50
2018-10-01T21:41:02.733Z,18.40
2018-10-01T21:43:33.704Z,18.40
2018-10-01T21:46:04.838Z,18.40
2018-10-01T21:48:35.525Z,18.40
2018-10-01T21:51:06.212Z,18.40
2018-10-01T21:53:36.838Z,18.50
2018-10-01T21:56:08.119Z,18.40
2018-10-01T21:58:39.048Z,18.40
2018-10-01T22:01:14.674Z,18.40
2018-10-01T22:03:45.411Z,18.40
2018-10-01T22:06:16.020Z,18.50
2018-10-01T22:08:46.853Z,18.50
2018-10-01T22:11:17.677Z,18.40
2018-10-01T22:13:48.238Z,18.40
2018-10-01T22:16:18.909Z,18.50
2018-10-01T22:18:49.600Z,18.40
2018-10-01T22:21:20.238Z,18.50
2018-10-01T22:23:50.917Z,18.50
2018-10-01T22:26:21.600Z,18.50
2018-10-01T22:28:52.299Z,18.50
2018-10-01T22:31:23.580Z,18.50
2018-10-01T22:33:54.336Z,18.50
2018-10-01T22:36:25.203Z,18.40
2018-10-01T22:38:56.246Z,18.50
2018-10-01T22:41:26.853Z,18.50
2018-10-01T22:43:57.573Z,18.50
2018-10-01T22:46:28.146Z,18.40
2018-10-01T22:48:59.362Z,18.40
2018-10-01T22:51:29.938Z,18.40
2018-10-01T22:54:00.672Z,18.40
2018-10-01T22:56:31.815Z,18.40
2018-10-01T22:59:02.458Z,18.40
2018-10-01T23:01:33.107Z,18.40
2018-10-01T23:04:03.737Z,18.30
2018-10-01T23:06:34.580Z,18.40
2018-10-01T23:09:06.178Z,18.40
2018-10-01T23:11:36.934Z,18.50
2018-10-01T23:14:07.693Z,18.50
2018-10-01T23:16:38.361Z,18.40
2018-10-01T23:19:09.026Z,18.40
2018-10-01T23:21:39.588Z,18.50
2018-10-01T23:24:10.243Z,18.50
2018-10-01T23:26:40.859Z,18.50
2018-10-01T23:29:11.666Z,18.40
2018-10-01T23:31:42.218Z,18.50
2018-10-01T23:34:12.753Z,18.60
2018-10-01T23:36:43.485Z,18.50
2018-10-01T23:39:14.145Z,18.40
2018-10-01T23:41:44.733Z,18.50
2018-10-01T23:44:15.353Z,18.40
2018-10-01T23:46:46.357Z,18.50
2018-10-01T23:49:17.065Z,18.50
2018-10-01T23:51:47.917Z,18.50
2018-10-01T23:54:18.695Z,18.60
2018-10-01T23:56:49.264Z,18.60
2018-10-01T23:59:19.999Z,18.60
